createdAt,value
2018-01-15T00:01:59.475Z,16.30
2018-01-15T00:04:28.586Z,16.10
2018-01-15T00:06:54.552Z,17.35
2018-01-15T00:09:24.660Z,17.40
2018-01-15T00:11:50.602Z,19.67
2018-01-15T00:14:17.741Z,17.63
2018-01-15T00:16:43.729Z,16.67
2018-01-15T00:19:12.098Z,17.35
2018-01-15T00:21:38.117Z,15.93
2018-01-15T00:24:07.221Z,16.00
2018-01-15T00:26:33.209Z,17.40
2018-01-15T00:28:59.140Z,18.10
2018-01-15T00:31:25.156Z,17.20
2018-01-15T00:33:51.134Z,19.33
2018-01-15T00:36:18.579Z,17.08
2018-01-15T00:38:44.526Z,16.83
2018-01-15T00:41:14.110Z,16.77
2018-01-15T00:43:40.134Z,17.27
2018-01-15T00:46:07.838Z,16.55
2018-01-15T00:48:33.757Z,16.17
2018-01-15T00:51:04.178Z,18.33
2018-01-15T00:53:30.140Z,18.17
2018-01-15T00:55:57.570Z,17.20
2018-01-15T00:58:23.576Z,20.37
2018-01-15T01:00:53.142Z,18.25
2018-01-15T01:03:19.163Z,17.80
2018-01-15T01:05:45.151Z,19.05
2018-01-15T01:08:11.105Z,17.52
2018-01-15T01:10:37.115Z,18.87
2018-01-15T01:13:04.288Z,16.75
2018-01-15T01:15:30.291Z,18.27
2018-01-15T01:17:58.561Z,19.20
2018-01-15T01:20:24.504Z,20.30
2018-01-15T01:22:53.100Z,16.43
2018-01-15T01:25:19.077Z,20.15
2018-01-15T01:27:48.281Z,18.00
2018-01-15T01:30:14.212Z,19.10
2018-01-15T01:32:44.199Z,17.30
2018-01-15T01:35:10.157Z,16.20
2018-01-15T01:37:37.388Z,17.70
2018-01-15T01:40:03.411Z,17.80
2018-01-15T01:42:29.380Z,16.75
2018-01-15T01:44:55.414Z,18.50
2018-01-15T01:47:21.548Z,19.05
2018-01-15T01:49:49.293Z,17.27
2018-01-15T01:52:15.222Z,18.12
2018-01-15T01:54:44.845Z,18.30
2018-01-15T01:57:10.771Z,18.92
2018-01-15T01:59:38.939Z,16.73
2018-01-15T02:02:04.890Z,17.40
2018-01-15T02:04:34.609Z,17.33
2018-01-15T02:07:00.568Z,16.83
2018-01-15T02:09:29.820Z,17.08
2018-01-15T02:11:55.745Z,18.67
2018-01-15T02:14:22.815Z,18.87
2018-01-15T02:16:48.773Z,16.02
2018-01-15T02:19:14.691Z,18.17
2018-01-15T02:21:40.618Z,18.07
2018-01-15T02:24:06.527Z,20.47
2018-01-15T02:26:34.273Z,18.00
2018-01-15T02:29:00.220Z,16.17
2018-01-15T02:31:30.238Z,17.47
2018-01-15T02:33:56.247Z,19.45
2018-01-15T02:36:25.624Z,17.45
2018-01-15T02:38:51.593Z,17.20
2018-01-15T02:41:18.692Z,17.27
2018-01-15T02:43:44.611Z,19.10
2018-01-15T02:46:14.214Z,18.10
2018-01-15T02:48:40.191Z,15.95
2018-01-15T02:51:07.898Z,17.50
2018-01-15T02:53:33.943Z,16.90
2018-01-15T02:55:59.877Z,18.15
2018-01-15T02:58:25.873Z,17.60
2018-01-15T03:00:51.853Z,17.50
2018-01-15T03:03:19.536Z,16.77
2018-01-15T03:05:45.565Z,16.65
2018-01-15T03:08:14.330Z,18.35
2018-01-15T03:10:40.297Z,16.17
2018-01-15T03:13:08.890Z,16.75
2018-01-15T03:15:34.836Z,17.17
2018-01-15T03:18:03.632Z,17.30
2018-01-15T03:20:29.593Z,17.92
2018-01-15T03:22:58.982Z,17.20
2018-01-15T03:25:24.990Z,16.50
2018-01-15T03:27:54.954Z,16.70
2018-01-15T03:30:20.909Z,17.00
2018-01-15T03:32:46.872Z,17.00
2018-01-15T03:35:12.870Z,18.12
2018-01-15T03:37:38.861Z,18.33
2018-01-15T03:40:05.717Z,15.93
2018-01-15T03:42:31.691Z,16.73
2018-01-15T03:45:01.227Z,16.42
2018-01-15T03:47:27.241Z,15.52
2018-01-15T03:49:54.726Z,18.37
2018-01-15T03:52:20.688Z,17.40
2018-01-15T03:54:50.016Z,17.15
2018-01-15T03:57:15.962Z,16.40
2018-01-15T03:59:43.685Z,16.40
2018-01-15T04:02:09.669Z,15.27
2018-01-15T04:04:38.533Z,16.48
2018-01-15T04:07:04.481Z,16.20
2018-01-15T04:09:30.497Z,17.47
2018-01-15T04:11:56.529Z,18.62
2018-01-15T04:14:22.510Z,18.05
2018-01-15T04:16:50.181Z,16.40
2018-01-15T04:19:16.202Z,17.67
2018-01-15T04:21:45.981Z,17.60
2018-01-15T04:24:12.019Z,18.30
2018-01-15T04:26:39.949Z,17.55
2018-01-15T04:29:05.916Z,17.20
2018-01-15T04:31:35.165Z,17.62
2018-01-15T04:34:01.236Z,17.92
2018-01-15T04:36:29.672Z,17.15
2018-01-15T04:38:55.783Z,19.65
2018-01-15T04:41:25.557Z,17.73
2018-01-15T04:43:51.547Z,17.58
2018-01-15T04:46:17.512Z,16.65
2018-01-15T04:48:43.432Z,19.17
2018-01-15T04:51:09.408Z,17.63
2018-01-15T04:53:36.564Z,19.35
2018-01-15T04:56:02.539Z,17.92
2018-01-15T04:58:31.465Z,16.62
2018-01-15T05:00:57.443Z,16.65
2018-01-15T05:03:25.233Z,16.40
2018-01-15T05:05:51.202Z,16.75
2018-01-15T05:08:20.807Z,18.45
2018-01-15T05:10:46.837Z,17.83
2018-01-15T05:13:16.009Z,18.23
2018-01-15T05:15:41.980Z,18.65
2018-01-15T05:18:09.195Z,18.65
2018-01-15T05:20:35.171Z,18.37
2018-01-15T05:23:01.171Z,18.17
2018-01-15T05:25:27.132Z,16.45
2018-01-15T05:27:53.152Z,15.70
2018-01-15T05:30:22.019Z,16.50
2018-01-15T05:32:47.972Z,17.37
2018-01-15T05:35:15.775Z,17.07
2018-01-15T05:37:41.740Z,18.05
2018-01-15T05:40:10.144Z,17.33
2018-01-15T05:42:36.128Z,17.73
2018-01-15T05:45:06.685Z,14.68
2018-01-15T05:47:32.694Z,17.73
2018-01-15T05:50:00.475Z,18.30
2018-01-15T05:52:26.450Z,16.30
2018-01-15T05:54:56.369Z,15.98
2018-01-15T05:57:22.406Z,17.05
2018-01-15T05:59:48.418Z,17.80
2018-01-15T06:02:14.376Z,15.90
2018-01-15T06:04:40.324Z,18.30
2018-01-15T06:07:06.365Z,17.50
2018-01-15T06:09:32.308Z,16.45
2018-01-15T06:12:01.600Z,16.33
2018-01-15T06:14:27.602Z,17.50
2018-01-15T06:16:57.091Z,15.02
2018-01-15T06:19:23.069Z,17.40
2018-01-15T06:21:50.374Z,16.48
2018-01-15T06:24:16.336Z,16.17
2018-01-15T06:26:44.893Z,14.50
2018-01-15T06:29:10.820Z,16.33
2018-01-15T06:31:39.570Z,17.63
2018-01-15T06:34:05.546Z,17.62
2018-01-15T06:36:31.476Z,17.20
2018-01-15T06:38:57.430Z,16.53
2018-01-15T06:41:23.450Z,17.00
2018-01-15T06:43:52.998Z,18.40
2018-01-15T06:46:19.002Z,18.42
2018-01-15T06:48:46.549Z,18.85
2018-01-15T06:51:12.658Z,17.05
2018-01-15T06:53:42.124Z,17.02
2018-01-15T06:56:08.154Z,17.15
2018-01-15T06:58:37.718Z,16.30
2018-01-15T07:01:03.693Z,15.70
2018-01-15T07:03:31.205Z,18.35
2018-01-15T07:05:57.240Z,15.60
2018-01-15T07:08:25.440Z,17.20
2018-01-15T07:10:51.388Z,14.02
2018-01-15T07:13:17.454Z,14.90
2018-01-15T07:15:43.454Z,16.00
2018-01-15T07:18:09.471Z,15.43
2018-01-15T07:20:38.912Z,16.30
2018-01-15T07:23:04.880Z,15.52
2018-01-15T07:25:32.378Z,14.60
2018-01-15T07:27:58.325Z,15.98
2018-01-15T07:30:27.582Z,15.40
2018-01-15T07:32:53.586Z,15.88
2018-01-15T07:35:22.882Z,14.95
2018-01-15T07:37:48.881Z,14.52
2018-01-15T07:40:16.849Z,14.50
2018-01-15T07:42:42.779Z,15.40
2018-01-15T07:45:10.522Z,14.93
2018-01-15T07:47:36.537Z,13.07
2018-01-15T07:50:02.508Z,13.35
2018-01-15T07:52:28.496Z,14.75
2018-01-15T07:54:54.490Z,14.27
2018-01-15T07:57:22.258Z,11.98
2018-01-15T07:59:48.217Z,12.57
2018-01-15T08:02:17.282Z,12.30
2018-01-15T08:04:43.244Z,13.48
2018-01-15T08:07:12.389Z,10.80
2018-01-15T08:09:38.402Z,11.20
2018-01-15T08:12:07.906Z,11.85
2018-01-15T08:14:33.904Z,13.40
2018-01-15T08:17:01.267Z,11.07
2018-01-15T08:19:27.286Z,12.25
2018-01-15T08:21:57.001Z,11.40
2018-01-15T08:24:22.931Z,11.45
2018-01-15T08:26:48.916Z,11.80
2018-01-15T08:29:14.979Z,11.35
2018-01-15T08:31:40.973Z,12.30
2018-01-15T08:34:08.264Z,11.60
2018-01-15T08:36:34.268Z,12.07
2018-01-15T08:39:03.499Z,11.53
2018-01-15T08:41:29.484Z,12.30
2018-01-15T08:43:58.770Z,11.95
2018-01-15T08:46:24.778Z,11.07
2018-01-15T08:48:51.873Z,10.50
2018-01-15T08:51:17.857Z,12.68
2018-01-15T08:53:47.609Z,11.88
2018-01-15T08:56:13.540Z,10.55
2018-01-15T08:58:41.386Z,11.60
2018-01-15T09:01:07.360Z,12.30
2018-01-15T09:03:33.314Z,11.15
2018-01-15T09:05:59.315Z,12.77
2018-01-15T09:08:25.275Z,11.10
2018-01-15T09:10:54.236Z,11.40
2018-01-15T09:13:20.223Z,11.50
2018-01-15T09:15:47.963Z,12.32
2018-01-15T09:18:13.948Z,13.00
2018-01-15T09:20:42.461Z,11.57
2018-01-15T09:23:08.487Z,12.35
2018-01-15T09:25:37.801Z,13.95
2018-01-15T09:28:03.781Z,14.07
2018-01-15T09:30:31.993Z,13.60
2018-01-15T09:32:57.999Z,13.35
2018-01-15T09:35:27.561Z,13.68
2018-01-15T09:37:53.584Z,11.77
2018-01-15T09:40:19.571Z,15.90
2018-01-15T09:42:45.531Z,14.98
2018-01-15T09:45:11.582Z,14.60
2018-01-15T09:47:39.110Z,13.43
2018-01-15T09:50:05.136Z,15.63
2018-01-15T09:52:34.050Z,15.57
2018-01-15T09:55:00.079Z,14.30
2018-01-15T09:57:27.969Z,13.68
2018-01-15T09:59:53.932Z,12.68
2018-01-15T10:02:23.263Z,14.50
2018-01-15T10:04:49.208Z,13.55
2018-01-15T10:07:18.273Z,16.17
2018-01-15T10:09:44.299Z,14.85
2018-01-15T10:12:13.641Z,15.85
2018-01-15T10:14:39.634Z,15.15
2018-01-15T10:17:05.648Z,15.93
2018-01-15T10:19:31.678Z,16.58
2018-01-15T10:21:57.678Z,15.50
2018-01-15T10:24:23.644Z,15.25
2018-01-15T10:26:49.628Z,15.47
2018-01-15T10:29:19.462Z,13.88
2018-01-15T10:31:45.421Z,15.40
2018-01-15T10:34:13.951Z,15.97
2018-01-15T10:36:40.044Z,13.68
2018-01-15T10:39:08.822Z,15.43
2018-01-15T10:41:34.854Z,13.43
2018-01-15T10:44:04.146Z,14.13
2018-01-15T10:46:30.096Z,13.77
2018-01-15T10:48:57.362Z,16.13
2018-01-15T10:51:23.361Z,13.23
2018-01-15T10:53:49.349Z,14.07
2018-01-15T10:56:15.388Z,13.80
2018-01-15T10:58:41.389Z,12.70
2018-01-15T11:04:06.298Z,12.55
2018-01-15T11:06:32.285Z,13.82
2018-01-15T11:08:58.251Z,14.32
2018-01-15T11:11:24.237Z,11.80
2018-01-15T11:13:50.209Z,13.05
2018-01-15T11:16:16.154Z,13.00
2018-01-15T11:18:42.078Z,15.00
2018-01-15T11:21:07.990Z,13.50
2018-01-15T11:23:34.089Z,12.40
2018-01-15T11:26:00.132Z,13.82
2018-01-15T11:28:26.111Z,13.65
2018-01-15T11:30:52.098Z,13.90
2018-01-15T11:33:18.155Z,12.98
2018-01-15T11:35:44.150Z,12.63
2018-01-15T11:38:10.142Z,12.70
2018-01-15T11:40:36.072Z,12.68
2018-01-15T11:43:02.082Z,12.77
2018-01-15T11:45:28.113Z,14.18
2018-01-15T11:47:54.132Z,12.82
2018-01-15T11:50:20.125Z,12.77
2018-01-15T11:52:46.056Z,13.15
2018-01-15T11:55:11.984Z,14.77
2018-01-15T11:57:37.919Z,12.73
2018-01-15T12:00:03.865Z,12.20
2018-01-15T12:02:29.803Z,10.80
2018-01-15T12:04:55.806Z,13.20
2018-01-15T12:07:21.769Z,12.37
2018-01-15T12:09:47.756Z,11.57
2018-01-15T12:12:13.728Z,11.90
2018-01-15T12:14:39.741Z,12.10
2018-01-15T12:17:05.673Z,12.57
2018-01-15T12:19:35.399Z,11.53
2018-01-15T12:24:29.606Z,10.95
2018-01-15T12:26:55.609Z,12.73
2018-01-15T12:29:24.980Z,11.60
2018-01-15T12:31:50.965Z,11.65
2018-01-15T12:34:18.659Z,12.45
2018-01-15T12:36:44.671Z,12.95
2018-01-15T12:39:14.017Z,11.80
2018-01-15T12:41:40.028Z,11.93
2018-01-15T12:44:06.071Z,11.98
2018-01-15T12:46:32.076Z,10.98
2018-01-15T12:48:57.999Z,11.20
2018-01-15T12:51:25.468Z,11.57
2018-01-15T12:53:51.510Z,9.82
2018-01-15T12:56:21.384Z,11.12
2018-01-15T12:58:47.335Z,11.10
2018-01-15T13:01:15.152Z,11.47
2018-01-15T13:03:41.105Z,11.50
2018-01-15T13:06:10.210Z,12.17
2018-01-15T13:11:35.126Z,11.55
2018-01-15T13:14:01.162Z,13.77
2018-01-15T13:16:27.186Z,11.32
2018-01-15T13:18:53.149Z,11.10
2018-01-15T13:21:19.097Z,11.10
2018-01-15T13:23:45.059Z,11.80
2018-01-15T13:26:11.106Z,13.10
2018-01-15T13:28:37.083Z,11.43
2018-01-15T13:31:03.130Z,12.32
2018-01-15T13:33:29.119Z,13.90
2018-01-15T13:35:55.062Z,12.45
2018-01-15T13:38:21.073Z,11.83
2018-01-15T13:40:47.048Z,10.90
2018-01-15T13:43:13.044Z,12.32
2018-01-15T13:45:39.021Z,11.38
2018-01-15T13:48:05.010Z,12.48
2018-01-15T13:50:30.961Z,13.02
2018-01-15T13:52:56.986Z,10.80
2018-01-15T13:55:22.960Z,11.65
2018-01-15T13:57:48.959Z,11.38
2018-01-15T14:00:14.934Z,12.15
2018-01-15T14:02:40.904Z,12.43
2018-01-15T14:05:06.923Z,12.80
2018-01-15T14:07:32.935Z,11.25
2018-01-15T14:09:58.910Z,11.18
2018-01-15T14:12:24.915Z,11.30
2018-01-15T14:14:50.942Z,11.65
2018-01-15T14:17:16.912Z,12.23
2018-01-15T14:19:42.889Z,10.10
2018-01-15T14:22:08.850Z,11.10
2018-01-15T14:24:34.796Z,10.33
2018-01-15T14:27:00.798Z,10.27
2018-01-15T14:29:29.218Z,10.50
2018-01-15T14:31:55.274Z,10.30
2018-01-15T14:34:21.253Z,11.57
2018-01-15T14:36:47.270Z,12.05
2018-01-15T14:39:13.224Z,10.65
2018-01-15T14:41:42.772Z,11.20
2018-01-15T14:44:08.814Z,9.48
2018-01-15T14:46:35.939Z,9.80
2018-01-15T14:49:01.887Z,11.38
2018-01-15T14:51:31.288Z,9.20
2018-01-15T14:53:57.318Z,10.45
2018-01-15T14:56:26.578Z,11.05
2018-01-15T14:58:52.546Z,9.32
2018-01-15T15:01:19.920Z,10.80
2018-01-15T15:03:45.929Z,10.35
2018-01-15T15:06:15.025Z,9.95
2018-01-15T15:08:41.006Z,8.80
2018-01-15T15:11:06.983Z,10.20
2018-01-15T15:13:32.985Z,10.38
2018-01-15T15:15:58.993Z,10.85
2018-01-15T15:18:26.862Z,10.25
2018-01-15T15:20:52.902Z,10.13
2018-01-15T15:23:21.975Z,9.85
2018-01-15T15:25:47.967Z,10.15
2018-01-15T15:28:15.770Z,8.60
2018-01-15T15:30:41.772Z,9.68
2018-01-15T15:33:11.055Z,9.65
2018-01-15T15:35:37.022Z,10.00
2018-01-15T15:38:05.704Z,8.93
2018-01-15T15:40:31.671Z,9.70
2018-01-15T15:43:01.328Z,7.50
2018-01-15T15:45:27.237Z,9.32
2018-01-15T15:47:53.197Z,10.07
2018-01-15T15:50:19.181Z,8.40
2018-01-15T15:52:45.205Z,9.30
2018-01-15T15:55:11.497Z,9.05
2018-01-15T15:57:37.495Z,8.35
2018-01-15T16:00:06.860Z,9.80
2018-01-15T16:02:32.803Z,8.20
2018-01-15T16:05:02.587Z,8.07
2018-01-15T16:07:28.618Z,8.10
2018-01-15T16:09:56.166Z,9.13
2018-01-15T16:12:22.140Z,8.65
2018-01-15T16:14:51.201Z,7.50
2018-01-15T16:17:17.201Z,8.40
2018-01-15T16:19:46.108Z,9.35
2018-01-15T16:22:24.466Z,10.35
2018-01-15T16:24:50.461Z,9.80
2018-01-15T16:27:16.460Z,8.98
2018-01-15T16:29:42.446Z,8.70
2018-01-15T16:32:08.435Z,18.45
2018-01-15T16:34:34.513Z,41.53
2018-01-15T16:37:00.445Z,11.15
2018-01-15T16:39:26.478Z,8.53
2018-01-15T16:41:52.494Z,11.12
2018-01-15T16:44:18.471Z,7.07
2018-01-15T16:46:44.439Z,7.97
2018-01-15T16:49:10.426Z,14.17
2018-01-15T16:51:36.464Z,8.40
2018-01-15T16:54:02.450Z,7.00
2018-01-15T16:56:30.523Z,7.70
2018-01-15T16:58:56.514Z,10.73
2018-01-15T17:01:22.521Z,10.52
2018-01-15T17:03:48.550Z,15.30
2018-01-15T17:06:14.540Z,11.52
2018-01-15T17:08:43.527Z,7.75
2018-01-15T17:11:09.570Z,9.10
2018-01-15T17:13:37.183Z,9.75
2018-01-15T17:16:03.145Z,9.73
2018-01-15T17:18:33.047Z,9.47
2018-01-15T17:20:59.025Z,9.35
2018-01-15T17:23:27.055Z,8.43
2018-01-15T17:25:53.042Z,9.77
2018-01-15T17:28:22.096Z,9.50
2018-01-15T17:30:48.048Z,9.32
2018-01-15T17:33:15.966Z,9.57
2018-01-15T17:35:41.896Z,8.85
2018-01-15T17:38:07.843Z,9.00
2018-01-15T17:40:33.883Z,9.13
2018-01-15T17:42:59.890Z,8.32
2018-01-15T17:45:28.972Z,8.07
2018-01-15T17:47:54.922Z,7.25
2018-01-15T17:50:23.980Z,7.60
2018-01-15T17:52:49.993Z,8.35
2018-01-15T17:55:17.374Z,9.98
2018-01-15T17:57:43.414Z,7.53
2018-01-15T18:00:12.890Z,12.68
2018-01-15T18:02:38.873Z,10.32
2018-01-15T18:05:06.358Z,11.73
2018-01-15T18:07:32.414Z,10.13
2018-01-15T18:10:01.698Z,8.10
2018-01-15T18:12:27.687Z,11.65
2018-01-15T18:14:53.721Z,10.70
2018-01-15T18:17:19.724Z,10.40
2018-01-15T18:19:45.742Z,10.18
2018-01-15T18:22:13.078Z,12.05
2018-01-15T18:24:39.065Z,10.73
2018-01-15T18:27:08.762Z,9.95
2018-01-15T18:29:34.709Z,11.30
2018-01-15T18:32:02.604Z,11.77
2018-01-15T18:34:28.633Z,12.43
2018-01-15T18:36:58.283Z,10.95
2018-01-15T18:39:24.243Z,11.43
2018-01-15T18:41:51.619Z,12.20
2018-01-15T18:44:17.599Z,11.50
2018-01-15T18:46:47.145Z,12.00
2018-01-15T18:49:13.162Z,12.90
2018-01-15T18:51:39.104Z,11.40
2018-01-15T18:54:05.135Z,11.30
2018-01-15T18:56:31.116Z,12.50
2018-01-15T18:58:58.306Z,12.05
2018-01-15T19:01:24.229Z,12.45
2018-01-15T19:03:53.729Z,11.73
2018-01-15T19:06:19.668Z,13.00
2018-01-15T19:08:48.588Z,12.47
2018-01-15T19:11:14.573Z,18.67
2018-01-15T19:13:42.140Z,10.88
2018-01-15T19:16:08.141Z,10.50
2018-01-15T19:18:37.524Z,13.05
2018-01-15T19:21:03.509Z,11.55
2018-01-15T19:23:32.874Z,11.88
2018-01-15T19:25:58.854Z,11.77
2018-01-15T19:28:24.839Z,14.90
2018-01-15T19:30:50.823Z,14.40
2018-01-15T19:33:16.829Z,16.37
2018-01-15T19:35:49.403Z,12.95
2018-01-15T19:38:17.358Z,14.87
2018-01-15T19:40:43.436Z,13.38
2018-01-15T19:46:18.239Z,12.55
2018-01-15T19:48:50.314Z,13.27
2018-01-15T19:51:22.278Z,10.77
2018-01-15T19:53:54.355Z,12.43
2018-01-15T19:56:26.317Z,12.32
2018-01-15T20:02:01.282Z,10.88
2018-01-15T20:04:33.299Z,11.02
2018-01-15T20:07:05.359Z,13.10
2018-01-15T20:09:37.457Z,10.40
2018-01-15T20:12:03.488Z,9.70
2018-01-15T20:14:29.526Z,8.73
2018-01-15T20:16:55.515Z,8.68
2018-01-15T20:19:21.479Z,8.70
2018-01-15T20:21:47.498Z,8.83
2018-01-15T20:24:13.471Z,9.25
2018-01-15T20:26:39.430Z,8.20
2018-01-15T20:29:05.412Z,8.70
2018-01-15T20:31:31.388Z,7.47
2018-01-15T20:33:57.394Z,9.38
2018-01-15T20:36:23.348Z,7.20
2018-01-15T20:38:49.291Z,6.00
2018-01-15T20:41:15.255Z,7.17
2018-01-15T20:43:41.181Z,6.07
2018-01-15T20:46:07.177Z,6.53
2018-01-15T20:48:33.157Z,7.25
2018-01-15T20:50:59.140Z,6.37
2018-01-15T20:53:25.128Z,6.87
2018-01-15T20:55:51.050Z,7.20
2018-01-15T20:58:17.062Z,5.13
2018-01-15T21:00:43.091Z,5.55
2018-01-15T21:03:09.085Z,3.35
2018-01-15T21:05:34.991Z,4.35
2018-01-15T21:08:00.986Z,3.50
2018-01-15T21:10:26.945Z,2.80
2018-01-15T21:12:52.942Z,1.43
2018-01-15T21:15:18.955Z,1.45
2018-01-15T21:17:44.970Z,1.10
2018-01-15T21:20:10.944Z,1.00
2018-01-15T21:22:36.989Z,0.98
2018-01-15T21:25:03.014Z,1.02
2018-01-15T21:30:19.158Z,1.02
2018-01-15T21:32:45.126Z,0.70
2018-01-15T21:35:11.117Z,0.50
2018-01-15T21:37:37.075Z,0.60
2018-01-15T21:40:03.040Z,0.70
2018-01-15T21:42:29.122Z,0.60
2018-01-15T21:44:55.114Z,0.70
2018-01-15T21:47:25.408Z,1.00
2018-01-15T21:49:51.347Z,0.80
2018-01-15T21:52:17.322Z,0.60
2018-01-15T21:54:43.332Z,0.70
2018-01-15T21:57:09.379Z,0.60
2018-01-15T21:59:35.332Z,0.70
2018-01-15T22:02:01.374Z,0.70
2018-01-15T22:04:27.364Z,0.60
2018-01-15T22:06:53.310Z,0.50
2018-01-15T22:09:19.363Z,0.90
2018-01-15T22:11:45.386Z,0.90
2018-01-15T22:14:11.435Z,0.70
2018-01-15T22:16:37.410Z,0.70
2018-01-15T22:19:03.482Z,0.90
2018-01-15T22:21:29.511Z,0.80
2018-01-15T22:23:55.518Z,0.93
2018-01-15T22:26:21.458Z,0.55
2018-01-15T22:28:47.494Z,0.60
2018-01-15T22:31:13.427Z,0.65
2018-01-15T22:33:39.443Z,0.60
2018-01-15T22:36:05.430Z,0.70
2018-01-15T22:38:31.470Z,0.77
2018-01-15T22:40:57.492Z,0.47
2018-01-15T22:43:23.454Z,0.70
2018-01-15T22:45:49.440Z,0.70
2018-01-15T22:48:15.436Z,0.60
2018-01-15T22:50:41.441Z,0.60
2018-01-15T22:53:07.465Z,0.60
2018-01-15T22:55:33.438Z,0.60
2018-01-15T22:57:59.480Z,0.55
2018-01-15T23:00:25.468Z,0.70
2018-01-15T23:02:51.480Z,0.60
2018-01-15T23:05:17.505Z,0.60
2018-01-15T23:07:43.608Z,0.70
2018-01-15T23:10:09.534Z,0.80
2018-01-15T23:12:35.513Z,0.60
2018-01-15T23:15:05.353Z,0.50
2018-01-15T23:17:31.337Z,0.60
2018-01-15T23:20:00.399Z,0.80
2018-01-15T23:22:26.420Z,0.70
2018-01-15T23:24:54.342Z,0.60
2018-01-15T23:27:20.259Z,0.70
2018-01-15T23:29:46.290Z,0.70
2018-01-15T23:32:12.304Z,0.52
2018-01-15T23:34:38.367Z,0.60
2018-01-15T23:37:05.362Z,0.70
2018-01-15T23:39:31.470Z,0.60
2018-01-15T23:42:01.267Z,0.73
2018-01-15T23:44:27.249Z,0.70
2018-01-15T23:46:55.532Z,0.60
2018-01-15T23:49:21.579Z,0.60
2018-01-15T23:51:51.663Z,0.70
2018-01-15T23:54:30.258Z,0.73
2018-01-15T23:56:57.087Z,0.60
2018-01-15T23:59:23.052Z,0.70
